sensor_id;sensor_type;location;lat;lon;timestamp;P1;durP1;ratioP1;P2;durP2;ratioP2
26582;SDS011;14230;45.382;10.998;2023-03-05T00:01:21;79.82;;;43.78;;
26582;SDS011;14230;45.382;10.998;2023-03-05T00:03:52;97.03;;;45.17;;
26582;SDS011;14230;45.382;10.998;2023-03-05T00:06:22;84.30;;;46.15;;
26582;SDS011;14230;45.382;10.998;2023-03-05T00:08:51;85.93;;;47.05;;
26582;SDS011;14230;45.382;10.998;2023-03-05T00:11:19;74.72;;;43.25;;
26582;SDS011;14230;45.382;10.998;2023-03-05T00:13:47;89.57;;;46.83;;
26582;SDS011;14230;45.382;10.998;2023-03-05T00:16:18;85.63;;;45.67;;
26582;SDS011;14230;45.382;10.998;2023-03-05T00:18:46;83.88;;;45.35;;
26582;SDS011;14230;45.382;10.998;2023-03-05T00:23:46;84.50;;;43.20;;
26582;SDS011;14230;45.382;10.998;2023-03-05T00:26:17;80.70;;;42.35;;
26582;SDS011;14230;45.382;10.998;2023-03-05T00:28:47;86.15;;;44.63;;
26582;SDS011;14230;45.382;10.998;2023-03-05T00:31:18;81.00;;;44.08;;
26582;SDS011;14230;45.382;10.998;2023-03-05T00:33:51;78.32;;;44.20;;
26582;SDS011;14230;45.382;10.998;2023-03-05T00:38:47;86.75;;;44.83;;
26582;SDS011;14230;45.382;10.998;2023-03-05T00:41:15;82.18;;;46.00;;
26582;SDS011;14230;45.382;10.998;2023-03-05T00:43:43;88.82;;;45.28;;
26582;SDS011;14230;45.382;10.998;2023-03-05T00:46:10;76.00;;;41.67;;
26582;SDS011;14230;45.382;10.998;2023-03-05T00:48:38;81.70;;;42.03;;
26582;SDS011;14230;45.382;10.998;2023-03-05T00:51:05;84.03;;;42.90;;
26582;SDS011;14230;45.382;10.998;2023-03-05T00:53:33;82.03;;;44.70;;
26582;SDS011;14230;45.382;10.998;2023-03-05T00:56:01;76.45;;;43.28;;
26582;SDS011;14230;45.382;10.998;2023-03-05T00:58:28;84.95;;;46.40;;
26582;SDS011;14230;45.382;10.998;2023-03-05T01:00:56;88.50;;;46.78;;
26582;SDS011;14230;45.382;10.998;2023-03-05T01:03:26;89.18;;;46.25;;
26582;SDS011;14230;45.382;10.998;2023-03-05T01:05:56;103.18;;;52.67;;
26582;SDS011;14230;45.382;10.998;2023-03-05T01:08:25;93.65;;;47.70;;
26582;SDS011;14230;45.382;10.998;2023-03-05T01:10:53;95.18;;;50.50;;
26582;SDS011;14230;45.382;10.998;2023-03-05T01:13:21;95.05;;;49.40;;
26582;SDS011;14230;45.382;10.998;2023-03-05T01:15:48;87.53;;;48.88;;
26582;SDS011;14230;45.382;10.998;2023-03-05T01:18:17;94.13;;;48.28;;
26582;SDS011;14230;45.382;10.998;2023-03-05T01:20:45;88.45;;;47.33;;
26582;SDS011;14230;45.382;10.998;2023-03-05T01:23:14;91.80;;;48.78;;
26582;SDS011;14230;45.382;10.998;2023-03-05T01:25:41;103.63;;;51.38;;
26582;SDS011;14230;45.382;10.998;2023-03-05T01:28:09;106.60;;;51.53;;
26582;SDS011;14230;45.382;10.998;2023-03-05T01:30:36;103.57;;;51.95;;
26582;SDS011;14230;45.382;10.998;2023-03-05T01:33:04;100.35;;;51.08;;
26582;SDS011;14230;45.382;10.998;2023-03-05T01:35:31;100.78;;;53.08;;
26582;SDS011;14230;45.382;10.998;2023-03-05T01:37:59;95.75;;;51.30;;
26582;SDS011;14230;45.382;10.998;2023-03-05T01:40:27;102.40;;;52.78;;
26582;SDS011;14230;45.382;10.998;2023-03-05T01:42:59;95.63;;;50.65;;
26582;SDS011;14230;45.382;10.998;2023-03-05T01:46:13;93.97;;;52.17;;
26582;SDS011;14230;45.382;10.998;2023-03-05T01:48:46;95.10;;;52.20;;
26582;SDS011;14230;45.382;10.998;2023-03-05T01:51:21;92.70;;;50.33;;
26582;SDS011;14230;45.382;10.998;2023-03-05T01:53:52;92.82;;;48.20;;
26582;SDS011;14230;45.382;10.998;2023-03-05T01:56:23;91.95;;;49.08;;
26582;SDS011;14230;45.382;10.998;2023-03-05T01:58:53;95.60;;;49.45;;
26582;SDS011;14230;45.382;10.998;2023-03-05T02:01:23;92.03;;;47.05;;
26582;SDS011;14230;45.382;10.998;2023-03-05T02:03:51;90.00;;;50.38;;
26582;SDS011;14230;45.382;10.998;2023-03-05T02:06:18;92.68;;;51.13;;
26582;SDS011;14230;45.382;10.998;2023-03-05T02:08:46;95.13;;;50.95;;
26582;SDS011;14230;45.382;10.998;2023-03-05T02:11:13;90.10;;;48.97;;
26582;SDS011;14230;45.382;10.998;2023-03-05T02:13:41;86.63;;;48.60;;
26582;SDS011;14230;45.382;10.998;2023-03-05T02:16:09;102.53;;;50.95;;
26582;SDS011;14230;45.382;10.998;2023-03-05T02:18:36;87.88;;;50.05;;
26582;SDS011;14230;45.382;10.998;2023-03-05T02:23:33;96.53;;;50.13;;
26582;SDS011;14230;45.382;10.998;2023-03-05T02:26:03;87.53;;;48.83;;
26582;SDS011;14230;45.382;10.998;2023-03-05T02:28:39;88.20;;;47.05;;
26582;SDS011;14230;45.382;10.998;2023-03-05T02:31:14;86.18;;;46.63;;
26582;SDS011;14230;45.382;10.998;2023-03-05T02:33:44;92.28;;;48.88;;
26582;SDS011;14230;45.382;10.998;2023-03-05T02:36:13;98.50;;;49.28;;
26582;SDS011;14230;45.382;10.998;2023-03-05T02:38:43;107.05;;;49.80;;
26582;SDS011;14230;45.382;10.998;2023-03-05T02:41:12;87.72;;;50.10;;
26582;SDS011;14230;45.382;10.998;2023-03-05T02:43:40;94.82;;;51.58;;
26582;SDS011;14230;45.382;10.998;2023-03-05T02:46:07;97.05;;;49.22;;
26582;SDS011;14230;45.382;10.998;2023-03-05T02:48:35;98.10;;;50.28;;
26582;SDS011;14230;45.382;10.998;2023-03-05T02:51:03;95.70;;;51.50;;
26582;SDS011;14230;45.382;10.998;2023-03-05T02:53:32;93.47;;;50.63;;
26582;SDS011;14230;45.382;10.998;2023-03-05T02:56:00;89.65;;;50.40;;
26582;SDS011;14230;45.382;10.998;2023-03-05T02:58:31;91.93;;;48.90;;
26582;SDS011;14230;45.382;10.998;2023-03-05T03:00:59;91.95;;;49.70;;
26582;SDS011;14230;45.382;10.998;2023-03-05T03:03:26;88.72;;;48.45;;
26582;SDS011;14230;45.382;10.998;2023-03-05T03:05:54;90.25;;;46.42;;
26582;SDS011;14230;45.382;10.998;2023-03-05T03:08:21;88.63;;;47.58;;
26582;SDS011;14230;45.382;10.998;2023-03-05T03:10:49;83.20;;;48.53;;
26582;SDS011;14230;45.382;10.998;2023-03-05T03:13:16;84.22;;;47.92;;
26582;SDS011;14230;45.382;10.998;2023-03-05T03:15:44;92.80;;;50.00;;
26582;SDS011;14230;45.382;10.998;2023-03-05T03:18:12;89.60;;;48.17;;
26582;SDS011;14230;45.382;10.998;2023-03-05T03:20:39;83.65;;;46.25;;
26582;SDS011;14230;45.382;10.998;2023-03-05T03:23:07;87.28;;;46.08;;
26582;SDS011;14230;45.382;10.998;2023-03-05T03:25:34;78.25;;;45.65;;
26582;SDS011;14230;45.382;10.998;2023-03-05T03:28:02;79.72;;;42.47;;
26582;SDS011;14230;45.382;10.998;2023-03-05T03:30:29;86.13;;;46.10;;
26582;SDS011;14230;45.382;10.998;2023-03-05T03:32:56;80.90;;;44.78;;
26582;SDS011;14230;45.382;10.998;2023-03-05T03:35:24;80.60;;;44.80;;
26582;SDS011;14230;45.382;10.998;2023-03-05T03:37:51;82.10;;;45.10;;
26582;SDS011;14230;45.382;10.998;2023-03-05T03:40:19;80.38;;;42.95;;
26582;SDS011;14230;45.382;10.998;2023-03-05T03:42:46;79.07;;;44.22;;
26582;SDS011;14230;45.382;10.998;2023-03-05T03:45:14;77.97;;;41.90;;
26582;SDS011;14230;45.382;10.998;2023-03-05T03:47:41;77.90;;;40.90;;
26582;SDS011;14230;45.382;10.998;2023-03-05T03:50:09;79.45;;;42.90;;
26582;SDS011;14230;45.382;10.998;2023-03-05T03:52:37;83.18;;;43.85;;
26582;SDS011;14230;45.382;10.998;2023-03-05T03:55:04;76.88;;;39.80;;
26582;SDS011;14230;45.382;10.998;2023-03-05T03:57:32;72.13;;;41.72;;
26582;SDS011;14230;45.382;10.998;2023-03-05T04:00:00;79.95;;;41.33;;
26582;SDS011;14230;45.382;10.998;2023-03-05T04:02:37;78.28;;;43.33;;
26582;SDS011;14230;45.382;10.998;2023-03-05T04:05:05;80.45;;;41.22;;
26582;SDS011;14230;45.382;10.998;2023-03-05T04:07:33;74.00;;;38.78;;
26582;SDS011;14230;45.382;10.998;2023-03-05T04:10:00;74.97;;;40.17;;
26582;SDS011;14230;45.382;10.998;2023-03-05T04:12:28;73.80;;;40.75;;
26582;SDS011;14230;45.382;10.998;2023-03-05T04:14:55;77.38;;;40.42;;
26582;SDS011;14230;45.382;10.998;2023-03-05T04:17:23;78.35;;;39.58;;
26582;SDS011;14230;45.382;10.998;2023-03-05T04:19:50;69.05;;;37.88;;
26582;SDS011;14230;45.382;10.998;2023-03-05T04:22:18;74.53;;;36.88;;
26582;SDS011;14230;45.382;10.998;2023-03-05T04:24:45;66.93;;;36.17;;
26582;SDS011;14230;45.382;10.998;2023-03-05T04:27:13;71.10;;;35.30;;
26582;SDS011;14230;45.382;10.998;2023-03-05T04:29:40;65.30;;;33.42;;
26582;SDS011;14230;45.382;10.998;2023-03-05T04:32:08;59.35;;;32.60;;
26582;SDS011;14230;45.382;10.998;2023-03-05T04:34:36;70.10;;;32.33;;
26582;SDS011;14230;45.382;10.998;2023-03-05T04:37:03;58.88;;;32.88;;
26582;SDS011;14230;45.382;10.998;2023-03-05T04:39:31;65.22;;;34.63;;
26582;SDS011;14230;45.382;10.998;2023-03-05T04:41:59;59.97;;;32.47;;
26582;SDS011;14230;45.382;10.998;2023-03-05T04:44:26;59.67;;;32.53;;
26582;SDS011;14230;45.382;10.998;2023-03-05T04:46:53;60.13;;;34.13;;
26582;SDS011;14230;45.382;10.998;2023-03-05T04:49:21;65.60;;;37.20;;
26582;SDS011;14230;45.382;10.998;2023-03-05T04:51:48;63.63;;;33.33;;
26582;SDS011;14230;45.382;10.998;2023-03-05T04:54:16;72.25;;;35.38;;
26582;SDS011;14230;45.382;10.998;2023-03-05T04:56:43;64.55;;;35.83;;
26582;SDS011;14230;45.382;10.998;2023-03-05T04:59:11;70.05;;;37.45;;
26582;SDS011;14230;45.382;10.998;2023-03-05T05:01:39;78.75;;;40.58;;
26582;SDS011;14230;45.382;10.998;2023-03-05T05:04:06;81.53;;;42.58;;
26582;SDS011;14230;45.382;10.998;2023-03-05T05:06:35;87.60;;;43.30;;
26582;SDS011;14230;45.382;10.998;2023-03-05T05:09:02;75.47;;;42.17;;
26582;SDS011;14230;45.382;10.998;2023-03-05T05:11:30;78.93;;;42.97;;
26582;SDS011;14230;45.382;10.998;2023-03-05T05:13:57;70.38;;;41.30;;
26582;SDS011;14230;45.382;10.998;2023-03-05T05:16:25;75.93;;;41.60;;
26582;SDS011;14230;45.382;10.998;2023-03-05T05:18:52;80.28;;;42.13;;
26582;SDS011;14230;45.382;10.998;2023-03-05T05:21:19;85.50;;;46.88;;
26582;SDS011;14230;45.382;10.998;2023-03-05T05:23:47;84.25;;;42.63;;
26582;SDS011;14230;45.382;10.998;2023-03-05T05:26:14;81.15;;;42.20;;
26582;SDS011;14230;45.382;10.998;2023-03-05T05:28:42;73.53;;;41.90;;
26582;SDS011;14230;45.382;10.998;2023-03-05T05:31:11;81.60;;;42.00;;
26582;SDS011;14230;45.382;10.998;2023-03-05T05:33:40;81.10;;;43.10;;
26582;SDS011;14230;45.382;10.998;2023-03-05T05:36:09;80.63;;;44.53;;
26582;SDS011;14230;45.382;10.998;2023-03-05T05:38:40;85.95;;;44.83;;
26582;SDS011;14230;45.382;10.998;2023-03-05T05:41:09;85.80;;;45.78;;
26582;SDS011;14230;45.382;10.998;2023-03-05T05:43:39;79.65;;;44.53;;
26582;SDS011;14230;45.382;10.998;2023-03-05T05:46:09;79.90;;;43.65;;
26582;SDS011;14230;45.382;10.998;2023-03-05T05:48:38;81.47;;;43.38;;
26582;SDS011;14230;45.382;10.998;2023-03-05T05:51:06;79.60;;;43.53;;
26582;SDS011;14230;45.382;10.998;2023-03-05T05:53:36;83.68;;;43.88;;
26582;SDS011;14230;45.382;10.998;2023-03-05T05:56:04;89.50;;;47.20;;
26582;SDS011;14230;45.382;10.998;2023-03-05T05:58:33;82.95;;;44.03;;
26582;SDS011;14230;45.382;10.998;2023-03-05T06:01:02;85.45;;;43.92;;
26582;SDS011;14230;45.382;10.998;2023-03-05T06:03:37;83.03;;;43.78;;
26582;SDS011;14230;45.382;10.998;2023-03-05T06:06:09;76.97;;;43.22;;
26582;SDS011;14230;45.382;10.998;2023-03-05T06:08:38;81.90;;;44.38;;
26582;SDS011;14230;45.382;10.998;2023-03-05T06:11:05;87.82;;;47.40;;
26582;SDS011;14230;45.382;10.998;2023-03-05T06:13:33;84.15;;;45.75;;
26582;SDS011;14230;45.382;10.998;2023-03-05T06:16:02;80.60;;;44.38;;
26582;SDS011;14230;45.382;10.998;2023-03-05T06:18:32;82.05;;;44.50;;
26582;SDS011;14230;45.382;10.998;2023-03-05T06:21:05;88.60;;;44.55;;
26582;SDS011;14230;45.382;10.998;2023-03-05T06:23:34;74.45;;;42.58;;
26582;SDS011;14230;45.382;10.998;2023-03-05T06:26:02;73.93;;;41.10;;
26582;SDS011;14230;45.382;10.998;2023-03-05T06:28:31;73.53;;;40.92;;
26582;SDS011;14230;45.382;10.998;2023-03-05T06:31:09;76.68;;;42.28;;
26582;SDS011;14230;45.382;10.998;2023-03-05T06:33:39;71.93;;;39.28;;
26582;SDS011;14230;45.382;10.998;2023-03-05T06:36:08;69.07;;;39.33;;
26582;SDS011;14230;45.382;10.998;2023-03-05T06:38:40;72.93;;;37.42;;
26582;SDS011;14230;45.382;10.998;2023-03-05T06:41:12;64.60;;;37.30;;
26582;SDS011;14230;45.382;10.998;2023-03-05T06:43:42;70.15;;;38.97;;
26582;SDS011;14230;45.382;10.998;2023-03-05T06:46:12;65.13;;;37.75;;
26582;SDS011;14230;45.382;10.998;2023-03-05T06:48:40;66.13;;;38.28;;
26582;SDS011;14230;45.382;10.998;2023-03-05T06:51:16;71.93;;;38.55;;
26582;SDS011;14230;45.382;10.998;2023-03-05T06:53:46;69.63;;;38.83;;
26582;SDS011;14230;45.382;10.998;2023-03-05T06:56:16;67.18;;;38.13;;
26582;SDS011;14230;45.382;10.998;2023-03-05T06:58:45;67.20;;;38.22;;
26582;SDS011;14230;45.382;10.998;2023-03-05T07:01:14;71.80;;;37.40;;
26582;SDS011;14230;45.382;10.998;2023-03-05T07:03:42;65.63;;;38.40;;
26582;SDS011;14230;45.382;10.998;2023-03-05T07:06:11;70.55;;;36.42;;
26582;SDS011;14230;45.382;10.998;2023-03-05T07:08:39;58.50;;;35.38;;
26582;SDS011;14230;45.382;10.998;2023-03-05T07:11:08;61.67;;;34.92;;
26582;SDS011;14230;45.382;10.998;2023-03-05T07:13:36;62.60;;;35.67;;
26582;SDS011;14230;45.382;10.998;2023-03-05T07:16:08;55.80;;;35.05;;
26582;SDS011;14230;45.382;10.998;2023-03-05T07:18:39;64.43;;;39.28;;
26582;SDS011;14230;45.382;10.998;2023-03-05T07:21:07;55.78;;;35.13;;
26582;SDS011;14230;45.382;10.998;2023-03-05T07:23:37;64.65;;;35.92;;
26582;SDS011;14230;45.382;10.998;2023-03-05T07:26:04;59.55;;;34.50;;
26582;SDS011;14230;45.382;10.998;2023-03-05T07:28:33;57.53;;;35.42;;
26582;SDS011;14230;45.382;10.998;2023-03-05T07:31:02;54.63;;;35.60;;
26582;SDS011;14230;45.382;10.998;2023-03-05T07:33:31;59.20;;;36.03;;
26582;SDS011;14230;45.382;10.998;2023-03-05T07:35:59;63.10;;;35.90;;
26582;SDS011;14230;45.382;10.998;2023-03-05T07:38:27;59.83;;;34.65;;
26582;SDS011;14230;45.382;10.998;2023-03-05T07:40:54;54.33;;;33.28;;
26582;SDS011;14230;45.382;10.998;2023-03-05T07:43:22;55.50;;;33.58;;
26582;SDS011;14230;45.382;10.998;2023-03-05T07:45:49;53.38;;;33.97;;
26582;SDS011;14230;45.382;10.998;2023-03-05T07:48:17;54.95;;;32.85;;
26582;SDS011;14230;45.382;10.998;2023-03-05T07:50:48;59.70;;;34.85;;
26582;SDS011;14230;45.382;10.998;2023-03-05T07:53:16;52.55;;;32.47;;
26582;SDS011;14230;45.382;10.998;2023-03-05T07:55:44;50.80;;;32.78;;
26582;SDS011;14230;45.382;10.998;2023-03-05T07:58:13;47.53;;;31.95;;
26582;SDS011;14230;45.382;10.998;2023-03-05T08:00:40;46.53;;;31.30;;
26582;SDS011;14230;45.382;10.998;2023-03-05T08:03:08;49.92;;;32.53;;
26582;SDS011;14230;45.382;10.998;2023-03-05T08:05:37;52.03;;;32.70;;
26582;SDS011;14230;45.382;10.998;2023-03-05T08:08:06;48.33;;;32.25;;
26582;SDS011;14230;45.382;10.998;2023-03-05T08:10:34;50.70;;;32.25;;
26582;SDS011;14230;45.382;10.998;2023-03-05T08:13:02;57.67;;;34.50;;
26582;SDS011;14230;45.382;10.998;2023-03-05T08:15:30;47.15;;;32.47;;
26582;SDS011;14230;45.382;10.998;2023-03-05T08:17:58;49.40;;;31.98;;
26582;SDS011;14230;45.382;10.998;2023-03-05T08:20:25;56.38;;;34.75;;
26582;SDS011;14230;45.382;10.998;2023-03-05T08:22:53;50.88;;;32.90;;
26582;SDS011;14230;45.382;10.998;2023-03-05T08:25:20;52.20;;;32.35;;
26582;SDS011;14230;45.382;10.998;2023-03-05T08:27:48;48.30;;;30.75;;
26582;SDS011;14230;45.382;10.998;2023-03-05T08:30:17;54.78;;;32.72;;
26582;SDS011;14230;45.382;10.998;2023-03-05T08:32:47;66.85;;;43.65;;
26582;SDS011;14230;45.382;10.998;2023-03-05T08:35:15;53.30;;;35.88;;
26582;SDS011;14230;45.382;10.998;2023-03-05T08:37:43;47.33;;;32.92;;
26582;SDS011;14230;45.382;10.998;2023-03-05T08:40:10;59.60;;;37.55;;
26582;SDS011;14230;45.382;10.998;2023-03-05T08:42:38;62.22;;;39.85;;
26582;SDS011;14230;45.382;10.998;2023-03-05T08:45:06;123.07;;;75.70;;
26582;SDS011;14230;45.382;10.998;2023-03-05T08:47:35;59.13;;;37.40;;
26582;SDS011;14230;45.382;10.998;2023-03-05T08:50:02;65.32;;;41.03;;
26582;SDS011;14230;45.382;10.998;2023-03-05T08:52:30;64.55;;;40.05;;
26582;SDS011;14230;45.382;10.998;2023-03-05T08:54:57;63.22;;;35.67;;
26582;SDS011;14230;45.382;10.998;2023-03-05T08:57:24;51.90;;;33.17;;
26582;SDS011;14230;45.382;10.998;2023-03-05T08:59:52;52.58;;;34.42;;
26582;SDS011;14230;45.382;10.998;2023-03-05T09:02:19;57.55;;;36.50;;
26582;SDS011;14230;45.382;10.998;2023-03-05T09:04:47;58.75;;;34.35;;
26582;SDS011;14230;45.382;10.998;2023-03-05T09:07:14;62.22;;;35.45;;
26582;SDS011;14230;45.382;10.998;2023-03-05T09:09:42;54.47;;;34.50;;
26582;SDS011;14230;45.382;10.998;2023-03-05T09:12:09;55.60;;;34.90;;
26582;SDS011;14230;45.382;10.998;2023-03-05T09:14:39;57.63;;;33.58;;
26582;SDS011;14230;45.382;10.998;2023-03-05T09:17:07;56.92;;;37.30;;
26582;SDS011;14230;45.382;10.998;2023-03-05T09:19:35;58.42;;;34.67;;
26582;SDS011;14230;45.382;10.998;2023-03-05T09:22:02;55.17;;;35.35;;
26582;SDS011;14230;45.382;10.998;2023-03-05T09:24:30;56.95;;;35.45;;
26582;SDS011;14230;45.382;10.998;2023-03-05T09:26:58;58.75;;;37.47;;
26582;SDS011;14230;45.382;10.998;2023-03-05T09:29:26;54.88;;;36.58;;
26582;SDS011;14230;45.382;10.998;2023-03-05T09:31:55;57.65;;;37.03;;
26582;SDS011;14230;45.382;10.998;2023-03-05T09:34:22;65.22;;;38.28;;
26582;SDS011;14230;45.382;10.998;2023-03-05T09:36:50;52.88;;;36.15;;
26582;SDS011;14230;45.382;10.998;2023-03-05T09:39:17;57.90;;;36.33;;
26582;SDS011;14230;45.382;10.998;2023-03-05T09:41:53;63.60;;;38.45;;
26582;SDS011;14230;45.382;10.998;2023-03-05T09:55:55;66.60;;;40.13;;
26582;SDS011;14230;45.382;10.998;2023-03-05T09:58:38;62.83;;;39.20;;
26582;SDS011;14230;45.382;10.998;2023-03-05T10:01:16;62.17;;;41.65;;
26582;SDS011;14230;45.382;10.998;2023-03-05T10:04:03;68.32;;;41.70;;
26582;SDS011;14230;45.382;10.998;2023-03-05T10:06:41;63.63;;;36.65;;
26582;SDS011;14230;45.382;10.998;2023-03-05T10:09:17;57.50;;;35.92;;
26582;SDS011;14230;45.382;10.998;2023-03-05T10:12:04;53.47;;;35.28;;
26582;SDS011;14230;45.382;10.998;2023-03-05T10:14:38;53.58;;;34.03;;
26582;SDS011;14230;45.382;10.998;2023-03-05T10:25:53;59.35;;;36.78;;
26582;SDS011;14230;45.382;10.998;2023-03-05T10:28:50;64.33;;;38.80;;
26582;SDS011;14230;45.382;10.998;2023-03-05T10:40:45;57.13;;;33.58;;
26582;SDS011;14230;45.382;10.998;2023-03-05T10:43:33;59.15;;;34.15;;
26582;SDS011;14230;45.382;10.998;2023-03-05T10:46:04;57.85;;;34.42;;
26582;SDS011;14230;45.382;10.998;2023-03-05T10:48:46;57.55;;;32.65;;
26582;SDS011;14230;45.382;10.998;2023-03-05T10:51:19;54.92;;;32.20;;
26582;SDS011;14230;45.382;10.998;2023-03-05T10:53:55;55.42;;;32.42;;
26582;SDS011;14230;45.382;10.998;2023-03-05T10:56:25;50.28;;;32.05;;
26582;SDS011;14230;45.382;10.998;2023-03-05T10:58:54;52.08;;;30.75;;
26582;SDS011;14230;45.382;10.998;2023-03-05T11:01:23;50.30;;;30.77;;
26582;SDS011;14230;45.382;10.998;2023-03-05T11:04:02;59.38;;;32.08;;
26582;SDS011;14230;45.382;10.998;2023-03-05T11:06:32;48.75;;;31.42;;
26582;SDS011;14230;45.382;10.998;2023-03-05T11:14:36;49.10;;;30.90;;
26582;SDS011;14230;45.382;10.998;2023-03-05T11:17:26;49.25;;;31.48;;
26582;SDS011;14230;45.382;10.998;2023-03-05T11:19:54;48.88;;;30.58;;
26582;SDS011;14230;45.382;10.998;2023-03-05T11:22:23;49.33;;;32.05;;
26582;SDS011;14230;45.382;10.998;2023-03-05T11:27:41;49.60;;;30.38;;
26582;SDS011;14230;45.382;10.998;2023-03-05T11:30:27;56.55;;;33.00;;
26582;SDS011;14230;45.382;10.998;2023-03-05T11:35:43;55.33;;;30.70;;
26582;SDS011;14230;45.382;10.998;2023-03-05T11:38:20;52.45;;;31.00;;
26582;SDS011;14230;45.382;10.998;2023-03-05T11:40:51;48.50;;;28.55;;
26582;SDS011;14230;45.382;10.998;2023-03-05T11:43:21;55.55;;;31.02;;
26582;SDS011;14230;45.382;10.998;2023-03-05T11:45:52;48.90;;;30.85;;
26582;SDS011;14230;45.382;10.998;2023-03-05T11:48:30;52.15;;;30.35;;
26582;SDS011;14230;45.382;10.998;2023-03-05T11:51:04;59.78;;;32.95;;
26582;SDS011;14230;45.382;10.998;2023-03-05T11:53:39;49.85;;;29.45;;
26582;SDS011;14230;45.382;10.998;2023-03-05T11:56:15;53.40;;;30.02;;
26582;SDS011;14230;45.382;10.998;2023-03-05T12:01:25;58.70;;;32.83;;
26582;SDS011;14230;45.382;10.998;2023-03-05T12:03:56;55.42;;;33.92;;
26582;SDS011;14230;45.382;10.998;2023-03-05T12:09:08;57.65;;;33.20;;
26582;SDS011;14230;45.382;10.998;2023-03-05T12:11:44;58.30;;;31.33;;
26582;SDS011;14230;45.382;10.998;2023-03-05T12:16:51;61.70;;;33.63;;
26582;SDS011;14230;45.382;10.998;2023-03-05T12:22:22;52.17;;;31.70;;
26582;SDS011;14230;45.382;10.998;2023-03-05T12:24:51;54.70;;;32.38;;
26582;SDS011;14230;45.382;10.998;2023-03-05T12:27:32;56.85;;;31.65;;
26582;SDS011;14230;45.382;10.998;2023-03-05T12:30:01;58.05;;;34.08;;
26582;SDS011;14230;45.382;10.998;2023-03-05T12:35:01;52.03;;;31.17;;
26582;SDS011;14230;45.382;10.998;2023-03-05T12:42:57;53.35;;;32.33;;
26582;SDS011;14230;45.382;10.998;2023-03-05T12:45:30;54.47;;;33.20;;
26582;SDS011;14230;45.382;10.998;2023-03-05T12:52:58;55.47;;;31.42;;
26582;SDS011;14230;45.382;10.998;2023-03-05T13:03:46;54.50;;;34.25;;
26582;SDS011;14230;45.382;10.998;2023-03-05T13:06:24;56.55;;;34.13;;
26582;SDS011;14230;45.382;10.998;2023-03-05T13:08:54;67.88;;;36.30;;
26582;SDS011;14230;45.382;10.998;2023-03-05T13:11:23;58.25;;;34.38;;
26582;SDS011;14230;45.382;10.998;2023-03-05T13:13:51;58.55;;;33.75;;
26582;SDS011;14230;45.382;10.998;2023-03-05T13:16:30;54.90;;;34.35;;
26582;SDS011;14230;45.382;10.998;2023-03-05T13:19:11;55.25;;;33.95;;
26582;SDS011;14230;45.382;10.998;2023-03-05T13:21:42;60.00;;;35.22;;
26582;SDS011;14230;45.382;10.998;2023-03-05T13:24:16;61.20;;;35.20;;
26582;SDS011;14230;45.382;10.998;2023-03-05T13:26:45;58.60;;;35.80;;
26582;SDS011;14230;45.382;10.998;2023-03-05T13:29:19;57.85;;;35.72;;
26582;SDS011;14230;45.382;10.998;2023-03-05T13:31:59;63.70;;;36.28;;
26582;SDS011;14230;45.382;10.998;2023-03-05T13:34:33;61.95;;;35.55;;
26582;SDS011;14230;45.382;10.998;2023-03-05T13:37:17;60.78;;;35.75;;
26582;SDS011;14230;45.382;10.998;2023-03-05T13:39:51;60.55;;;35.78;;
26582;SDS011;14230;45.382;10.998;2023-03-05T13:42:26;58.97;;;34.78;;
26582;SDS011;14230;45.382;10.998;2023-03-05T13:45:01;59.47;;;34.33;;
26582;SDS011;14230;45.382;10.998;2023-03-05T13:47:33;59.58;;;35.42;;
26582;SDS011;14230;45.382;10.998;2023-03-05T13:50:04;61.13;;;34.88;;
26582;SDS011;14230;45.382;10.998;2023-03-05T13:52:36;59.28;;;36.13;;
26582;SDS011;14230;45.382;10.998;2023-03-05T13:55:11;58.10;;;34.25;;
26582;SDS011;14230;45.382;10.998;2023-03-05T14:00:25;60.30;;;35.42;;
26582;SDS011;14230;45.382;10.998;2023-03-05T14:03:00;64.13;;;34.90;;
26582;SDS011;14230;45.382;10.998;2023-03-05T14:05:46;56.38;;;33.40;;
26582;SDS011;14230;45.382;10.998;2023-03-05T14:08:20;63.80;;;36.17;;
26582;SDS011;14230;45.382;10.998;2023-03-05T14:10:55;61.85;;;36.47;;
26582;SDS011;14230;45.382;10.998;2023-03-05T14:13:25;58.70;;;33.72;;
26582;SDS011;14230;45.382;10.998;2023-03-05T14:18:31;66.75;;;36.42;;
26582;SDS011;14230;45.382;10.998;2023-03-05T14:21:07;65.90;;;36.80;;
26582;SDS011;14230;45.382;10.998;2023-03-05T14:23:41;60.00;;;35.15;;
26582;SDS011;14230;45.382;10.998;2023-03-05T14:29:16;62.15;;;36.40;;
26582;SDS011;14230;45.382;10.998;2023-03-05T14:31:55;67.57;;;37.47;;
26582;SDS011;14230;45.382;10.998;2023-03-05T14:34:26;56.55;;;34.97;;
26582;SDS011;14230;45.382;10.998;2023-03-05T14:36:58;61.38;;;34.90;;
26582;SDS011;14230;45.382;10.998;2023-03-05T14:40:31;59.58;;;35.13;;
26582;SDS011;14230;45.382;10.998;2023-03-05T14:43:03;68.07;;;36.72;;
26582;SDS011;14230;45.382;10.998;2023-03-05T14:45:35;56.15;;;34.88;;
26582;SDS011;14230;45.382;10.998;2023-03-05T14:48:04;73.50;;;37.72;;
26582;SDS011;14230;45.382;10.998;2023-03-05T14:50:35;63.15;;;37.05;;
26582;SDS011;14230;45.382;10.998;2023-03-05T14:53:06;60.30;;;36.83;;
26582;SDS011;14230;45.382;10.998;2023-03-05T14:55:40;61.92;;;36.47;;
26582;SDS011;14230;45.382;10.998;2023-03-05T14:58:12;64.60;;;36.47;;
26582;SDS011;14230;45.382;10.998;2023-03-05T15:00:41;63.67;;;37.65;;
26582;SDS011;14230;45.382;10.998;2023-03-05T15:03:10;63.67;;;35.55;;
26582;SDS011;14230;45.382;10.998;2023-03-05T15:05:38;59.35;;;36.63;;
26582;SDS011;14230;45.382;10.998;2023-03-05T15:08:11;63.85;;;37.60;;
26582;SDS011;14230;45.382;10.998;2023-03-05T15:10:44;63.00;;;38.58;;
26582;SDS011;14230;45.382;10.998;2023-03-05T15:13:13;68.13;;;39.08;;
26582;SDS011;14230;45.382;10.998;2023-03-05T15:15:41;62.25;;;37.53;;
26582;SDS011;14230;45.382;10.998;2023-03-05T15:18:11;53.22;;;33.95;;
26582;SDS011;14230;45.382;10.998;2023-03-05T15:20:39;66.78;;;37.05;;
26582;SDS011;14230;45.382;10.998;2023-03-05T15:23:07;63.75;;;35.53;;
26582;SDS011;14230;45.382;10.998;2023-03-05T15:25:35;58.50;;;36.15;;
26582;SDS011;14230;45.382;10.998;2023-03-05T15:28:02;64.28;;;36.08;;
26582;SDS011;14230;45.382;10.998;2023-03-05T15:30:37;60.92;;;37.00;;
26582;SDS011;14230;45.382;10.998;2023-03-05T15:33:08;66.13;;;38.08;;
26582;SDS011;14230;45.382;10.998;2023-03-05T15:35:37;64.40;;;36.60;;
26582;SDS011;14230;45.382;10.998;2023-03-05T15:38:05;66.40;;;36.58;;
26582;SDS011;14230;45.382;10.998;2023-03-05T15:40:32;68.65;;;40.10;;
26582;SDS011;14230;45.382;10.998;2023-03-05T15:43:00;66.80;;;39.10;;
26582;SDS011;14230;45.382;10.998;2023-03-05T15:45:27;64.78;;;36.92;;
26582;SDS011;14230;45.382;10.998;2023-03-05T15:47:59;64.60;;;37.75;;
26582;SDS011;14230;45.382;10.998;2023-03-05T15:50:26;69.53;;;39.72;;
26582;SDS011;14230;45.382;10.998;2023-03-05T15:52:54;68.00;;;38.05;;
26582;SDS011;14230;45.382;10.998;2023-03-05T15:55:21;69.00;;;37.20;;